Time;durP1;ratioP1;P1;durP2;ratioP2;P2;SDS_P1;SDS_P2;PMS_P1;PMS_P2;Temp;Humidity;BMP_temperature;BMP_pressure;BME280_temperature;BME280_humidity;BME280_pressure;Samples;Min_cycle;Max_cycle;Signal;HPM_P1;HPM_P2
2022/06/24 00:01:33;;;;;;;8.48;3.70;;;;;;;20.13;nan;95048.31;6274122;22;20019;-84
2022/06/24 00:03:58;;;;;;;12.68;4.38;;;;;;;19.90;nan;95031.03;6274866;22;20027;-84
2022/06/24 00:06:29;;;;;;;11.63;4.10;;;;;;;19.30;nan;94922.19;6274103;22;20091;-84
2022/06/24 00:08:59;;;;;;;9.15;3.90;;;;;;;20.28;nan;95090.72;6274936;22;20023;-84
2022/06/24 00:11:28;;;;;;;8.75;3.45;;;;;;;20.57;nan;95140.91;6276924;22;20004;-84
2022/06/24 00:14:12;;;;;;;10.43;3.90;;;;;;;20.58;nan;95144.38;6275747;22;20062;-84
2022/06/24 00:17:00;;;;;;;11.80;4.07;;;;;;;20.57;nan;95156.28;6276235;22;20434;-84
2022/06/24 00:19:27;;;;;;;12.73;3.78;;;;;;;19.89;nan;95042.91;6274292;22;20031;-84
2022/06/24 00:22:12;;;;;;;7.72;3.47;;;;;;;20.62;nan;95159.53;6276569;22;20000;-85
2022/06/24 00:24:39;;;;;;;10.00;4.22;;;;;;;20.15;nan;95091.00;6276003;22;20008;-83
2022/06/24 00:27:17;;;;;;;11.38;4.40;;;;;;;20.13;nan;95096.75;6273897;22;20007;-84
2022/06/24 00:29:43;;;;;;;10.15;4.63;;;;;;;20.10;nan;95110.09;6274535;22;20003;-84
2022/06/24 00:32:09;;;;;;;9.80;3.80;;;;;;;20.49;nan;95168.72;6276037;22;20014;-83
2022/06/24 00:34:36;;;;;;;6.00;3.58;;;;;;;20.04;nan;95083.41;6273391;22;20023;-84
2022/06/24 00:37:21;;;;;;;9.00;3.85;;;;;;;20.54;nan;95173.09;6275315;22;20461;-84
2022/06/24 00:39:47;;;;;;;8.73;4.13;;;;;;;19.93;nan;95090.31;6273436;22;20043;-84
2022/06/24 00:42:13;;;;;;;7.13;3.70;;;;;;;20.00;nan;95101.31;6274481;22;20011;-84
2022/06/24 00:44:45;;;;;;;9.25;4.35;;;;;;;20.59;nan;95176.38;6273880;22;20041;-84
2022/06/24 00:47:14;;;;;;;8.45;4.47;;;;;;;19.87;nan;95072.84;6273464;22;20059;-84
2022/06/24 00:49:39;;;;;;;8.52;3.85;;;;;;;19.97;nan;95093.94;6273193;22;20008;-84
2022/06/24 00:52:08;;;;;;;7.63;4.40;;;;;;;20.21;nan;95132.78;6273739;22;20407;-84
2022/06/24 00:54:34;;;;;;;10.27;4.10;;;;;;;19.84;nan;95081.56;6275290;22;20007;-84
2022/06/24 00:57:00;;;;;;;7.95;4.13;;;;;;;19.91;nan;95106.03;6276184;22;20058;-84
2022/06/24 00:59:26;;;;;;;11.02;4.20;;;;;;;19.94;nan;95126.91;6272641;22;20005;-84
2022/06/24 01:01:52;;;;;;;10.52;3.60;;;;;;;20.12;nan;95148.25;6275363;22;20012;-84
2022/06/24 01:04:17;;;;;;;6.90;3.97;;;;;;;20.12;nan;95151.72;6275886;22;20445;-84
2022/06/24 01:06:44;;;;;;;9.13;4.22;;;;;;;20.27;nan;95183.38;6273373;22;20060;-84
2022/06/24 01:09:11;;;;;;;14.32;4.45;;;;;;;20.08;nan;95125.78;6274770;22;20038;-84
2022/06/24 01:11:42;;;;;;;9.93;4.72;;;;;;;20.37;nan;95180.28;6273814;22;20004;-84
2022/06/24 01:14:09;;;;;;;9.30;4.03;;;;;;;18.28;nan;94857.66;6273067;22;20015;-84
2022/06/24 01:16:35;;;;;;;14.55;4.30;;;;;;;19.57;nan;95088.34;6274945;22;20427;-84
2022/06/24 01:19:04;;;;;;;5.88;3.90;;;;;;;20.34;nan;95182.88;6273104;22;20091;-84
2022/06/24 01:21:37;;;;;;;9.30;4.43;;;;;;;20.25;nan;95188.31;6275500;22;20525;-84
2022/06/24 01:24:23;;;;;;;9.40;3.75;;;;;;;18.63;nan;94930.63;6273872;22;20011;-84
2022/06/24 01:26:52;;;;;;;8.05;4.18;;;;;;;19.70;nan;95099.91;6274526;22;20099;-84
2022/06/24 01:29:19;;;;;;;8.98;3.63;;;;;;;19.67;nan;95102.50;6273846;22;20426;-84
2022/06/24 01:31:48;;;;;;;12.85;3.70;;;;;;;19.72;nan;95089.63;6273678;22;20000;-84
2022/06/24 01:34:15;;;;;;;13.35;4.90;;;;;;;20.06;nan;95161.13;6275452;22;20011;-84
2022/06/24 01:36:40;;;;;;;13.80;4.22;;;;;;;19.44;nan;95075.19;6273484;22;20011;-84
2022/06/24 01:39:06;;;;;;;8.68;4.07;;;;;;;19.31;nan;95068.16;6273084;22;20518;-84
2022/06/24 01:41:32;;;;;;;10.80;4.20;;;;;;;19.48;nan;95103.00;6273480;22;20069;-84
2022/06/24 01:43:58;;;;;;;12.15;4.88;;;;;;;19.78;nan;95133.25;6275114;22;20026;-84
2022/06/24 01:46:26;;;;;;;11.13;4.57;;;;;;;19.89;nan;95189.03;6300356;22;20007;-84
2022/06/24 01:48:52;;;;;;;14.80;4.82;;;;;;;19.33;nan;95076.69;6274552;22;19999;-84
2022/06/24 01:51:19;;;;;;;13.88;4.70;;;;;;;19.65;nan;95117.06;6273265;22;20003;-83
2022/06/24 01:53:44;;;;;;;15.65;4.32;;;;;;;19.61;nan;95116.16;6274606;22;19999;-84
2022/06/24 01:56:10;;;;;;;8.75;4.38;;;;;;;19.56;nan;95113.69;6275395;22;20113;-84
2022/06/24 01:58:35;;;;;;;11.27;4.65;;;;;;;19.47;nan;95102.22;6274188;22;20045;-84
2022/06/24 02:01:01;;;;;;;11.25;4.63;;;;;;;19.90;nan;95152.13;6272452;22;20103;-84
2022/06/24 02:03:29;;;;;;;10.88;4.15;;;;;;;19.60;nan;95097.66;6273946;22;20004;-84
2022/06/24 02:06:04;;;;;;;11.38;4.05;;;;;;;18.69;nan;94950.81;6275622;22;20003;-84
2022/06/24 02:08:30;;;;;;;11.35;4.57;;;;;;;19.47;nan;95098.72;6274686;22;20503;-84
2022/06/24 02:13:40;;;;;;;8.35;4.22;;;;;;;18.85;nan;95003.59;6274878;22;20019;-84
2022/06/24 02:16:06;;;;;;;10.98;5.35;;;;;;;19.78;nan;95144.00;6275423;22;20012;-84
2022/06/24 02:18:32;;;;;;;10.27;4.80;;;;;;;19.86;nan;95145.81;6274271;22;20003;-84
2022/06/24 02:20:59;;;;;;;11.15;5.35;;;;;;;19.92;nan;95147.19;6272711;22;20011;-84
2022/06/24 02:23:26;;;;;;;17.48;4.38;;;;;;;19.80;nan;95156.00;6298878;22;20008;-84
2022/06/24 02:25:53;;;;;;;11.50;5.32;;;;;;;19.78;nan;95142.09;6273270;22;20086;-84
2022/06/24 02:28:18;;;;;;;16.48;5.38;;;;;;;19.58;nan;95097.22;6272911;22;20022;-84
2022/06/24 02:30:45;;;;;;;13.93;5.28;;;;;;;20.03;nan;95154.50;6274138;22;19999;-84
2022/06/24 02:33:12;;;;;;;17.55;5.65;;;;;;;19.41;nan;95091.97;6274456;22;20004;-84
2022/06/24 02:35:38;;;;;;;14.93;6.10;;;;;;;19.24;nan;95090.22;6272352;22;20046;-84
2022/06/24 02:38:05;;;;;;;13.13;5.28;;;;;;;19.89;nan;95170.19;6274869;22;20010;-84
2022/06/24 02:40:45;;;;;;;13.05;5.75;;;;;;;18.59;nan;94952.00;6272528;22;20015;-84
2022/06/24 02:43:22;;;;;;;23.17;5.50;;;;;;;19.52;nan;95109.31;6273234;22;20011;-84
2022/06/24 02:45:53;;;;;;;16.83;5.70;;;;;;;19.82;nan;95177.22;6273447;22;20091;-84
2022/06/24 02:48:21;;;;;;;15.20;4.82;;;;;;;19.12;nan;95050.63;6274847;22;20046;-84
2022/06/24 02:50:54;;;;;;;8.98;4.65;;;;;;;19.54;nan;95110.53;6274297;22;20404;-84
2022/06/24 02:53:22;;;;;;;11.80;4.78;;;;;;;19.44;nan;95107.44;6272555;22;20031;-84
2022/06/24 02:55:51;;;;;;;21.33;4.38;;;;;;;19.67;nan;95138.28;6274099;22;20007;-83
2022/06/24 02:58:16;;;;;;;17.23;5.28;;;;;;;19.15;nan;95057.25;6273042;22;20355;-84
2022/06/24 03:00:43;;;;;;;12.70;4.72;;;;;;;19.58;nan;95119.53;6272903;22;20019;-84
2022/06/24 03:03:13;;;;;;;20.17;4.68;;;;;;;19.06;nan;95037.75;6273967;22;20091;-83
2022/06/24 03:05:39;;;;;;;17.35;5.20;;;;;;;18.44;nan;94964.09;6273280;22;20007;-83
2022/06/24 03:08:06;;;;;;;9.32;5.00;;;;;;;19.80;nan;95161.41;6274409;22;20293;-84
2022/06/24 03:10:32;;;;;;;11.05;4.28;;;;;;;18.82;nan;95024.97;6274503;22;20377;-83
2022/06/24 03:12:57;;;;;;;11.88;4.80;;;;;;;19.48;nan;95159.47;6274199;22;20008;-83
2022/06/24 03:15:23;;;;;;;21.40;5.38;;;;;;;19.02;nan;95099.41;6274653;22;20289;-83
2022/06/24 03:17:48;;;;;;;16.98;5.05;;;;;;;18.87;nan;95071.22;6274777;22;20082;-83
2022/06/24 03:20:14;;;;;;;16.02;4.75;;;;;;;19.01;nan;95091.66;6274088;22;20008;-84
2022/06/24 03:22:40;;;;;;;22.80;5.13;;;;;;;19.23;nan;95129.75;6274312;22;20011;-83
2022/06/24 03:25:07;;;;;;;18.10;5.57;;;;;;;19.54;nan;95172.38;6272494;22;20022;-83
2022/06/24 03:27:33;;;;;;;14.52;5.15;;;;;;;18.94;nan;95096.78;6272648;22;20007;-84
2022/06/24 03:29:59;;;;;;;13.40;4.60;;;;;;;19.37;nan;95171.75;6272363;22;20057;-83
2022/06/24 03:32:25;;;;;;;17.65;5.60;;;;;;;19.25;nan;95138.28;6273085;22;20072;-83
2022/06/24 03:34:50;;;;;;;18.25;5.13;;;;;;;19.00;nan;95128.50;6272653;22;20015;-83
2022/06/24 03:37:16;;;;;;;9.90;4.82;;;;;;;18.40;nan;95046.41;6273650;22;20031;-83
2022/06/24 03:39:42;;;;;;;13.48;5.55;;;;;;;19.35;nan;95184.72;6298715;22;20333;-83
2022/06/24 03:42:07;;;;;;;15.75;5.43;;;;;;;19.21;nan;95160.78;6272740;22;20103;-83
2022/06/24 03:44:32;;;;;;;15.35;5.95;;;;;;;19.48;nan;95186.38;6272658;22;20099;-84
2022/06/24 03:46:58;;;;;;;16.38;5.72;;;;;;;19.46;nan;95177.81;6274548;22;20003;-84
2022/06/24 03:49:23;;;;;;;14.32;5.50;;;;;;;19.03;nan;95111.75;6274693;22;20090;-83
2022/06/24 03:51:49;;;;;;;9.13;5.75;;;;;;;18.84;nan;95052.31;6274104;22;20235;-83
2022/06/24 03:54:15;;;;;;;13.10;5.80;;;;;;;19.66;nan;95177.06;6272129;22;20015;-83
2022/06/24 03:56:41;;;;;;;16.15;6.25;;;;;;;19.28;nan;95151.09;6271606;22;20513;-83
2022/06/24 03:59:07;;;;;;;15.35;6.03;;;;;;;18.90;nan;95099.34;6273347;22;20068;-84
2022/06/24 04:01:32;;;;;;;20.13;7.45;;;;;;;19.03;nan;95092.94;6273149;22;20086;-83
2022/06/24 04:03:57;;;;;;;13.82;5.53;;;;;;;19.23;nan;95094.00;6274556;22;20012;-83
2022/06/24 04:06:23;;;;;;;12.30;5.53;;;;;;;18.71;nan;94988.88;6271897;22;20008;-84
2022/06/24 04:08:49;;;;;;;15.43;5.38;;;;;;;19.17;nan;95058.50;6274138;22;20039;-83
2022/06/24 04:11:16;;;;;;;14.15;5.15;;;;;;;19.56;nan;95107.50;6272339;22;20010;-83
2022/06/24 04:13:43;;;;;;;19.58;5.70;;;;;;;19.92;nan;95168.72;6276530;22;20467;-84
2022/06/24 04:16:08;;;;;;;18.67;5.00;;;;;;;19.05;nan;95033.47;6272644;22;20016;-83
2022/06/24 04:18:34;;;;;;;17.27;5.60;;;;;;;19.21;nan;95094.38;6270532;22;20071;-82
2022/06/24 04:21:00;;;;;;;13.43;6.03;;;;;;;19.45;nan;95131.31;6271244;22;20432;-83
2022/06/24 04:23:26;;;;;;;21.90;5.88;;;;;;;19.63;nan;95146.19;6274004;22;20039;-84
2022/06/24 04:25:52;;;;;;;13.10;6.30;;;;;;;19.86;nan;95186.19;6271367;22;20008;-84
2022/06/24 04:28:17;;;;;;;23.77;10.98;;;;;;;19.64;nan;95177.38;6271533;22;20114;-84
2022/06/24 04:30:43;;;;;;;19.42;11.73;;;;;;;19.45;nan;95144.78;6272953;22;20003;-83
2022/06/24 04:33:09;;;;;;;24.33;12.32;;;;;;;19.29;nan;95149.19;6272995;22;20100;-84
2022/06/24 04:35:34;;;;;;;20.85;10.13;;;;;;;18.76;nan;95066.59;6271216;22;20100;-84
2022/06/24 04:38:00;;;;;;;12.48;7.40;;;;;;;19.35;nan;95164.00;6270122;22;20011;-84
2022/06/24 04:40:25;;;;;;;22.45;7.78;;;;;;;19.76;nan;95192.75;6273199;22;20019;-85
2022/06/24 04:42:51;;;;;;;21.00;8.48;;;;;;;19.84;nan;95202.66;6272964;22;20004;-84
2022/06/24 04:45:16;;;;;;;11.82;7.40;;;;;;;19.59;nan;95209.06;6268173;22;20465;-84
2022/06/24 04:47:42;;;;;;;18.85;8.52;;;;;;;18.87;nan;95124.19;6268998;22;20371;-84
2022/06/24 04:50:08;;;;;;;16.85;7.20;;;;;;;19.15;nan;95133.28;6266929;22;20019;-84
2022/06/24 04:52:35;;;;;;;26.63;7.57;;;;;;;19.01;nan;95070.97;6264531;22;20017;-83
2022/06/24 04:55:01;;;;;;;21.02;7.85;;;;;;;19.34;nan;95115.91;6268345;22;20035;-84
2022/06/24 04:57:27;;;;;;;17.02;7.90;;;;;;;19.37;nan;95163.66;6262496;22;20073;-84
2022/06/24 04:59:52;;;;;;;21.02;8.35;;;;;;;18.97;nan;95061.22;6261805;22;20480;-84
2022/06/24 05:02:18;;;;;;;11.45;6.32;;;;;;;19.48;nan;95160.25;6264884;22;20012;-83
2022/06/24 05:04:43;;;;;;;19.23;8.77;;;;;;;19.49;nan;95116.13;6262682;22;20364;-83
2022/06/24 05:07:09;;;;;;;15.05;8.32;;;;;;;20.03;nan;95188.72;6262814;22;20011;-83
2022/06/24 05:09:36;;;;;;;24.27;9.63;;;;;;;19.40;nan;95091.16;6265847;22;20028;-83
2022/06/24 05:12:02;;;;;;;17.50;9.35;;;;;;;20.14;nan;95208.69;6265339;22;20314;-82
2022/06/24 05:14:29;;;;;;;25.88;9.75;;;;;;;20.01;nan;95156.75;6264541;22;20037;-83
2022/06/24 05:16:55;;;;;;;24.70;11.35;;;;;;;20.41;nan;95212.72;6265897;22;20016;-83
2022/06/24 05:19:21;;;;;;;18.17;9.50;;;;;;;20.04;nan;95179.53;6263481;22;20029;-83
2022/06/24 05:21:46;;;;;;;19.40;9.45;;;;;;;20.18;nan;95224.97;6262620;22;20011;-84
2022/06/24 05:24:12;;;;;;;18.48;10.90;;;;;;;19.75;nan;95156.25;6261481;22;20370;-83
2022/06/24 05:26:37;;;;;;;20.67;8.75;;;;;;;20.20;nan;95228.13;6259119;22;20439;-83
2022/06/24 05:29:03;;;;;;;20.63;9.57;;;;;;;19.74;nan;95146.59;6259142;22;20094;-83
2022/06/24 05:31:28;;;;;;;15.70;9.48;;;;;;;19.81;nan;95195.28;6262853;22;20059;-84
2022/06/24 05:33:54;;;;;;;20.30;10.65;;;;;;;19.78;nan;95187.84;6257575;22;20007;-83
2022/06/24 05:36:19;;;;;;;18.40;10.52;;;;;;;20.11;nan;95232.81;6258611;22;20044;-83
2022/06/24 05:38:46;;;;;;;20.52;10.13;;;;;;;19.09;nan;95062.03;6264316;22;20489;-83
2022/06/24 05:41:12;;;;;;;14.35;8.75;;;;;;;20.56;nan;95240.91;6265475;22;20046;-83
2022/06/24 05:43:38;;;;;;;24.52;9.52;;;;;;;20.58;nan;95222.50;6262473;22;20007;-83
2022/06/24 05:46:04;;;;;;;19.45;11.25;;;;;;;20.79;nan;95237.47;6262744;22;20084;-84
2022/06/24 05:48:30;;;;;;;21.52;9.75;;;;;;;20.36;nan;95161.78;6261975;22;20026;-83
2022/06/24 05:50:56;;;;;;;16.75;10.20;;;;;;;19.72;nan;95078.84;6257984;22;20517;-83
2022/06/24 05:56:05;;;;;;;20.85;10.80;;;;;;;20.49;nan;95251.47;6262043;22;20022;-84
2022/06/24 05:58:31;;;;;;;15.90;10.25;;;;;;;19.94;nan;95196.09;6261569;22;20012;-84
2022/06/24 06:00:57;;;;;;;19.55;11.18;;;;;;;20.47;nan;95265.25;6260773;22;20290;-83
2022/06/24 06:03:24;;;;;;;17.33;9.75;;;;;;;20.54;nan;95260.09;6258415;22;20011;-85
2022/06/24 06:05:50;;;;;;;23.05;10.15;;;;;;;19.84;nan;95196.50;6262421;22;20363;-84
2022/06/24 06:08:16;;;;;;;22.45;9.90;;;;;;;20.29;nan;95234.97;6253054;22;20018;-84
2022/06/24 06:10:46;;;;;;;17.75;9.60;;;;;;;19.94;nan;95159.19;6259702;22;20399;-86
2022/06/24 06:13:12;;;;;;;23.80;10.30;;;;;;;20.30;nan;95233.88;6260322;22;20068;-84
2022/06/24 06:15:38;;;;;;;15.32;10.93;;;;;;;20.38;nan;95224.94;6262441;22;20011;-84
2022/06/24 06:18:04;;;;;;;18.58;9.50;;;;;;;19.60;nan;95146.09;6260797;22;20007;-84
2022/06/24 06:20:30;;;;;;;31.15;11.40;;;;;;;19.89;nan;95178.25;6257539;22;20015;-84
2022/06/24 06:22:55;;;;;;;13.75;9.10;;;;;;;19.01;nan;95079.03;6258848;22;20101;-84
2022/06/24 06:25:22;;;;;;;23.63;9.93;;;;;;;19.55;nan;95127.44;6258640;22;20064;-84
2022/06/24 06:27:49;;;;;;;20.48;9.20;;;;;;;19.46;nan;95122.13;6260747;22;20007;-85
2022/06/24 06:30:15;;;;;;;12.82;7.55;;;;;;;19.49;nan;95182.56;6261567;22;20015;-84
2022/06/24 06:32:40;;;;;;;13.55;8.23;;;;;;;19.57;nan;95169.06;6261290;22;20030;-84
2022/06/24 06:35:06;;;;;;;13.25;8.40;;;;;;;20.06;nan;95233.81;6259978;22;20457;-85
2022/06/24 06:37:32;;;;;;;18.70;8.68;;;;;;;19.85;nan;95190.00;6263081;22;20003;-85
2022/06/24 06:39:58;;;;;;;15.38;8.18;;;;;;;19.38;nan;95143.72;6259078;22;20034;-85
2022/06/24 06:42:33;;;;;;;12.45;6.95;;;;;;;19.04;nan;95040.75;6259026;22;20377;-87
2022/06/24 06:45:00;;;;;;;12.63;7.75;;;;;;;19.76;nan;95151.63;6258899;22;20018;-87
2022/06/24 06:47:26;;;;;;;11.50;6.65;;;;;;;19.98;nan;95181.66;6261423;22;20463;-87
2022/06/24 06:49:51;;;;;;;13.23;6.43;;;;;;;19.83;nan;95139.22;6262521;22;20007;-84
2022/06/24 06:52:17;;;;;;;15.80;6.32;;;;;;;19.76;nan;95119.34;6263292;22;20011;-85
2022/06/24 06:54:42;;;;;;;10.63;6.28;;;;;;;18.41;nan;94916.41;6264703;22;20110;-84
2022/06/24 06:57:07;;;;;;;13.65;6.50;;;;;;;19.88;nan;95144.38;6257526;22;20022;-84
2022/06/24 06:59:33;;;;;;;15.88;6.78;;;;;;;20.22;nan;95204.34;6263824;22;20346;-83
2022/06/24 07:01:58;;;;;;;14.68;6.75;;;;;;;19.60;nan;95097.66;6259969;22;20011;-84
2022/06/24 07:04:24;;;;;;;13.93;7.63;;;;;;;19.97;nan;95128.94;6262957;22;20514;-84
2022/06/24 07:06:50;;;;;;;10.10;6.40;;;;;;;20.00;nan;95132.84;6257618;22;20094;-84
2022/06/24 07:09:15;;;;;;;11.43;5.90;;;;;;;20.28;nan;95160.72;6264665;22;20110;-85
2022/06/24 07:11:41;;;;;;;14.05;6.18;;;;;;;20.60;nan;95223.72;6262012;22;20253;-84
2022/06/24 07:14:06;;;;;;;19.77;6.50;;;;;;;20.54;nan;95200.03;6263101;22;20061;-85
2022/06/24 07:16:32;;;;;;;11.82;5.72;;;;;;;20.16;nan;95146.44;6260195;22;20015;-84
2022/06/24 07:18:57;;;;;;;15.07;5.18;;;;;;;20.34;nan;95178.25;6257976;22;20425;-84
2022/06/24 07:21:23;;;;;;;14.35;5.28;;;;;;;18.36;nan;94854.88;6259593;22;20325;-85
2022/06/24 07:23:48;;;;;;;8.63;4.50;;;;;;;20.45;nan;95169.72;6258761;22;20022;-85
2022/06/24 07:26:14;;;;;;;8.07;5.43;;;;;;;20.42;nan;95166.59;6257533;22;20008;-85
2022/06/24 07:28:39;;;;;;;11.48;6.07;;;;;;;20.70;nan;95193.66;6262418;22;20065;-85
2022/06/24 07:31:19;;;;;;;11.65;5.97;;;;;;;20.87;nan;95203.44;6259214;22;20010;-85
2022/06/24 07:33:46;;;;;;;11.52;4.85;;;;;;;20.43;nan;95105.44;6255203;22;20097;-86
2022/06/24 07:36:12;;;;;;;8.35;5.90;;;;;;;21.05;nan;95188.59;6256834;22;20012;-86
2022/06/24 07:38:38;;;;;;;10.48;6.05;;;;;;;21.10;nan;95188.34;6253451;22;20146;-86
2022/06/24 07:41:04;;;;;;;12.00;5.60;;;;;;;21.32;nan;95183.63;6259603;22;20564;-84
2022/06/24 07:43:30;;;;;;;10.75;5.95;;;;;;;20.21;nan;95014.31;6260797;22;20007;-85
2022/06/24 07:45:59;;;;;;;15.93;6.13;;;;;;;20.59;nan;95041.66;6262340;22;20204;-85
2022/06/24 07:48:24;;;;;;;11.93;5.82;;;;;;;21.40;nan;95166.50;6262216;22;20110;-86
2022/06/24 07:50:50;;;;;;;13.90;6.35;;;;;;;21.13;nan;95114.09;6262440;22;20530;-83
2022/06/24 07:53:15;;;;;;;11.68;6.10;;;;;;;20.07;nan;94962.69;6252311;22;20015;-86
2022/06/24 07:58:25;;;;;;;10.98;5.63;;;;;;;21.85;nan;95158.13;6258220;22;20049;-83
2022/06/24 08:00:51;;;;;;;8.57;5.60;;;;;;;22.02;nan;95157.06;6260546;22;20011;-85
2022/06/24 08:03:17;;;;;;;11.18;5.75;;;;;;;21.20;nan;95021.84;6256757;22;20023;-86
2022/06/24 08:05:45;;;;;;;10.48;5.75;;;;;;;21.20;nan;95016.47;6263209;22;20430;-84
2022/06/24 08:08:10;;;;;;;12.27;6.05;;;;;;;22.06;nan;95158.72;6259404;22;20011;-85
2022/06/24 08:10:36;;;;;;;12.90;6.18;;;;;;;21.30;nan;95053.69;6259826;22;20168;-85
2022/06/24 08:13:02;;;;;;;18.30;6.38;;;;;;;20.25;nan;94908.25;6262978;22;20011;-84
2022/06/24 08:15:27;;;;;;;9.50;5.72;;;;;;;21.88;nan;95133.16;6264663;22;20038;-82
2022/06/24 08:17:53;;;;;;;10.32;5.80;;;;;;;21.87;nan;95128.88;6266820;22;20727;-83
2022/06/24 08:20:18;;;;;;;19.27;5.13;;;;;;;21.08;nan;95009.16;6262361;22;20007;-85
2022/06/24 08:22:44;;;;;;;15.20;6.57;;;;;;;21.55;nan;95058.63;6263417;22;20026;-85
2022/06/24 08:25:10;;;;;;;13.40;5.90;;;;;;;21.62;nan;95070.75;6263579;22;20008;-84
2022/06/24 08:27:35;;;;;;;11.45;6.63;;;;;;;22.05;nan;95127.44;6267219;22;20015;-85
2022/06/24 08:30:03;;;;;;;9.68;5.75;;;;;;;22.08;nan;95121.34;6266293;22;20466;-85
2022/06/24 08:32:28;;;;;;;12.50;6.07;;;;;;;21.70;nan;95050.91;6263941;22;20011;-85
2022/06/24 08:34:55;;;;;;;10.55;5.13;;;;;;;22.42;nan;95140.72;6264922;22;20084;-85
2022/06/24 08:37:21;;;;;;;10.23;5.40;;;;;;;22.11;nan;95090.16;6265710;22;20477;-85
2022/06/24 08:39:46;;;;;;;10.10;5.68;;;;;;;21.81;nan;95044.66;6264982;22;20316;-85
2022/06/24 08:42:12;;;;;;;8.30;4.43;;;;;;;22.23;nan;95114.38;6265462;22;20053;-85
2022/06/24 08:44:40;;;;;;;9.18;4.50;;;;;;;21.71;nan;95020.88;6266489;22;20035;-85
2022/06/24 08:47:06;;;;;;;8.07;4.47;;;;;;;22.47;nan;95181.75;6265450;22;20038;-85
2022/06/24 08:49:32;;;;;;;13.88;4.68;;;;;;;22.58;nan;95165.81;6264075;22;20008;-85
2022/06/24 08:52:00;;;;;;;6.75;4.45;;;;;;;22.89;nan;95179.31;6258499;22;20022;-85
2022/06/24 08:54:29;;;;;;;8.63;4.55;;;;;;;22.96;nan;95179.47;6255744;22;20007;-84
2022/06/24 08:56:55;;;;;;;10.85;4.78;;;;;;;22.20;nan;95088.84;6264135;22;20011;-85
2022/06/24 08:59:20;;;;;;;9.85;5.25;;;;;;;22.22;nan;95081.19;6254941;22;20408;-85
2022/06/24 09:01:47;;;;;;;9.20;4.72;;;;;;;21.38;nan;94926.78;6262433;22;20016;-85
2022/06/24 09:04:13;;;;;;;6.55;4.55;;;;;;;23.04;nan;95177.72;6262094;22;20085;-85
2022/06/24 09:06:40;;;;;;;10.95;4.65;;;;;;;22.76;nan;95121.06;6264220;22;20011;-85
2022/06/24 09:09:06;;;;;;;7.93;4.47;;;;;;;22.53;nan;95091.19;6262903;22;20197;-85
2022/06/24 09:11:40;;;;;;;12.18;4.28;;;;;;;23.27;nan;95161.59;6262781;22;20065;-85
2022/06/24 09:14:06;;;;;;;10.48;4.93;;;;;;;22.81;nan;95109.22;6257872;22;20011;-84
2022/06/24 09:16:35;;;;;;;6.35;4.35;;;;;;;23.22;nan;95164.59;6264246;22;20039;-84
2022/06/24 09:19:03;;;;;;;10.00;4.70;;;;;;;22.85;nan;95104.66;6264698;22;20027;-83
2022/06/24 09:21:39;;;;;;;11.55;4.80;;;;;;;23.15;nan;95165.22;6259464;22;20018;-83
2022/06/24 09:24:06;;;;;;;10.68;4.55;;;;;;;22.72;nan;95079.66;6255077;22;20012;-84
2022/06/24 09:26:40;;;;;;;10.90;4.85;;;;;;;22.54;nan;95032.50;6286402;22;20034;-83
2022/06/24 09:29:11;;;;;;;10.43;4.15;;;;;;;22.84;nan;95070.66;6263349;22;20058;-86
2022/06/24 09:31:38;;;;;;;12.25;4.57;;;;;;;22.83;nan;95080.69;6262565;22;19999;-85
2022/06/24 09:34:17;;;;;;;7.88;4.20;;;;;;;23.24;nan;95154.19;6265566;22;20043;-84
2022/06/24 09:36:48;;;;;;;8.45;3.90;;;;;;;22.62;nan;95064.75;6260023;22;20320;-85
2022/06/24 09:39:15;;;;;;;7.00;3.22;;;;;;;22.92;nan;95121.03;6258270;22;20031;-84
2022/06/24 09:41:44;;;;;;;3.25;2.35;;;;;;;23.37;nan;95163.75;6268555;22;20026;-85
2022/06/24 09:44:10;;;;;;;3.80;2.75;;;;;;;23.17;nan;95098.03;6272517;22;20076;-85
2022/06/24 09:46:37;;;;;;;8.43;2.83;;;;;;;23.51;nan;95090.97;6267056;22;20012;-84
2022/06/24 09:49:05;;;;;;;5.35;3.40;;;;;;;23.52;nan;95051.16;6266581;22;20413;-84
2022/06/24 09:51:33;;;;;;;6.97;2.72;;;;;;;24.04;nan;95083.84;6267485;22;20003;-85
2022/06/24 09:54:00;;;;;;;4.43;2.90;;;;;;;25.11;nan;95169.59;6265894;22;20019;-84
2022/06/24 09:56:26;;;;;;;9.10;2.72;;;;;;;25.05;nan;95176.50;6264876;22;20046;-85
2022/06/24 10:01:40;;;;;;;10.40;2.72;;;;;;;25.13;nan;95070.41;6264115;22;20022;-85
2022/06/24 10:04:20;;;;;;;6.80;2.67;;;;;;;26.55;nan;95164.34;6267297;22;20038;-85
2022/06/24 10:06:49;;;;;;;4.78;2.20;;;;;;;27.04;nan;95153.09;6270661;22;20014;-85
2022/06/24 10:09:21;;;;;;;7.20;2.50;;;;;;;27.42;nan;95096.50;6265251;22;20016;-84
2022/06/24 10:11:47;;;;;;;5.75;2.33;;;;;;;28.23;nan;95167.66;6264699;22;20028;-84
2022/06/24 10:14:13;;;;;;;4.95;2.33;;;;;;;28.91;nan;95167.78;6263761;22;20046;-85
2022/06/24 10:16:41;;;;;;;4.82;2.20;;;;;;;29.36;nan;95092.41;6265054;22;20035;-84
2022/06/24 10:19:09;;;;;;;3.47;1.45;;;;;;;30.16;nan;95126.00;6262275;22;20016;-84
2022/06/24 10:21:35;;;;;;;6.05;2.50;;;;;;;30.88;nan;95143.50;6271554;22;20031;-85
2022/06/24 10:24:13;;;;;;;6.28;2.10;;;;;;;31.44;nan;95149.59;6264476;22;20072;-85
2022/06/24 10:26:41;;;;;;;7.38;2.83;;;;;;;31.09;nan;95111.63;6270017;22;20015;-85
2022/06/24 10:29:06;;;;;;;8.32;2.67;;;;;;;30.75;nan;95174.47;6267062;22;20015;-83
2022/06/24 10:31:52;;;;;;;7.03;2.40;;;;;;;31.23;nan;95172.53;6263566;22;20037;-84
2022/06/24 10:34:26;;;;;;;6.18;2.42;;;;;;;31.39;nan;95170.03;6267552;22;20007;-84
2022/06/24 10:36:57;;;;;;;5.43;2.22;;;;;;;30.68;nan;95060.34;6267913;22;20086;-84
2022/06/24 10:39:25;;;;;;;6.70;2.28;;;;;;;31.61;nan;95134.97;6266310;22;20019;-84
2022/06/24 10:42:02;;;;;;;6.43;1.92;;;;;;;31.55;nan;95122.09;6266500;22;20015;-84
2022/06/24 10:44:33;;;;;;;4.00;2.00;;;;;;;31.48;nan;95164.06;6267413;22;20004;-85
2022/06/24 10:47:04;;;;;;;6.00;2.08;;;;;;;31.19;nan;95173.75;6268396;22;20015;-84
2022/06/24 10:49:52;;;;;;;6.65;2.30;;;;;;;30.87;nan;95168.53;6268295;22;20461;-83
2022/06/24 10:52:33;;;;;;;6.40;2.38;;;;;;;31.03;nan;95160.56;6264495;22;20031;-84
2022/06/24 10:57:50;;;;;;;5.72;1.90;;;;;;;31.49;nan;95156.63;6267643;22;20020;-84
2022/06/24 11:00:20;;;;;;;4.95;1.98;;;;;;;31.44;nan;95152.34;6265940;22;20012;-84
2022/06/24 11:02:49;;;;;;;5.63;1.80;;;;;;;31.35;nan;95155.59;6265240;22;20008;-83
2022/06/24 11:05:17;;;;;;;3.67;2.17;;;;;;;30.74;nan;95071.66;6267276;22;20049;-85
2022/06/24 11:07:48;;;;;;;4.65;2.40;;;;;;;30.45;nan;95079.28;6262298;22;20130;-84
2022/06/24 11:10:23;;;;;;;6.07;2.13;;;;;;;30.69;nan;95154.97;6265408;22;20086;-84
2022/06/24 11:12:53;;;;;;;4.70;2.00;;;;;;;30.21;nan;95084.56;6265972;22;20150;-84
2022/06/24 11:15:31;;;;;;;9.73;2.40;;;;;;;30.62;nan;95112.03;6265917;22;20008;-84
2022/06/24 11:17:56;;;;;;;5.97;2.75;;;;;;;30.37;nan;95105.16;6267547;22;20447;-83
2022/06/24 11:20:22;;;;;;;10.73;3.00;;;;;;;29.06;nan;95030.06;6269100;22;20019;-83
2022/06/24 11:22:48;;;;;;;5.47;2.80;;;;;;;29.37;nan;95058.47;6270215;22;20351;-84
2022/06/24 11:25:16;;;;;;;9.23;2.70;;;;;;;29.78;nan;95111.34;6269463;22;20015;-84
2022/06/24 11:27:42;;;;;;;8.88;2.03;;;;;;;29.65;nan;95077.47;6271818;22;20011;-84
2022/06/24 11:30:09;;;;;;;5.90;2.63;;;;;;;29.32;nan;95026.06;6269995;22;21105;-83
2022/06/24 11:32:59;;;;;;;9.65;2.25;;;;;;;29.42;nan;95077.16;6271473;22;20007;-84
2022/06/24 11:35:26;;;;;;;4.05;2.20;;;;;;;29.78;nan;95064.09;6267605;22;20003;-84
2022/06/24 11:37:56;;;;;;;10.00;3.00;;;;;;;30.42;nan;95123.91;6270230;22;20012;-83
2022/06/24 11:40:27;;;;;;;6.47;2.55;;;;;;;30.97;nan;95132.06;6270851;22;20732;-84
2022/06/24 11:42:55;;;;;;;11.45;2.95;;;;;;;30.55;nan;94997.16;6271097;22;20011;-84
2022/06/24 11:45:38;;;;;;;9.88;3.13;;;;;;;31.32;nan;95046.03;6272243;22;20022;-84
2022/06/24 11:48:06;;;;;;;7.97;2.65;;;;;;;32.17;nan;95113.50;6271062;22;20004;-84
2022/06/24 11:50:33;;;;;;;5.72;2.58;;;;;;;32.05;nan;95065.44;6265986;22;20007;-84
2022/06/24 11:52:59;;;;;;;5.97;2.00;;;;;;;31.09;nan;94969.22;6270890;22;20008;-84
2022/06/24 11:55:28;;;;;;;8.32;2.17;;;;;;;32.89;nan;95113.97;6268771;22;20012;-84
2022/06/24 11:57:59;;;;;;;4.28;2.17;;;;;;;32.89;nan;95125.72;6273379;22;20015;-87
2022/06/24 12:00:26;;;;;;;4.35;2.42;;;;;;;31.43;nan;94883.03;6268121;22;20016;-84